Pacific Dawn — 2AGH7 — position and weather

sailwx.info

Track history (hours):
 
Tides and Currents Weather Stations Pressure Air Temp Water Temp Dewpoint Dewpoint Depression Visibility Wind Speed Wind Dir Waves Ship Positions

Pacific Dawn

Last reported at 2017-Apr-25 10:58 UTC. Time now 2017-Apr-25 12:33 UTC.
Position S 26°40' E 153°14'.

Length 245 m; draft 8.3 m.

Type: Passenger vessel. MMSI: 235059368.

Date/timePositionNaut miles runAvg speedWind from/ knotsBaromVisibWave heightAir tempDewpointWater temp
2017-Apr-25 10:58S 26°40' E 153°14'5 9.8
2017-Apr-25 10:27S 26°44' E 153°11'613.3
2017-Apr-25 10:00S 26°50' E 153°09'815.2
2017-Apr-25 09:30S 26°56' E 153°13'815.3
2017-Apr-25 09:01S 27°03' E 153°17'714.8
2017-Apr-25 08:30S 27°09' E 153°21'815.3
2017-Apr-25 08:01S 27°16' E 153°17'714.9
2017-Apr-25 07:30S 27°21' E 153°11'4 8.2
2017-Apr-25 07:00S 27°25' E 153°09'4 7.3
2017-Apr-25 06:30S 27°27' E 153°05'1 1.5
2017-Apr-25 05:58S 27°26' E 153°04'0 0.0
2017-Apr-25 05:28S 27°26' E 153°04'0 0.0
2017-Apr-25 04:58S 27°26' E 153°04'0 0.0
2017-Apr-25 04:28S 27°26' E 153°04'0 0.0
2017-Apr-25 03:58S 27°26' E 153°04'0 0.0
2017-Apr-25 03:28S 27°26' E 153°04'0 0.0
2017-Apr-25 02:58S 27°26' E 153°04'0 0.0
2017-Apr-25 02:28S 27°26' E 153°04'0 0.0
2017-Apr-25 01:58S 27°26' E 153°04'0 0.0
2017-Apr-25 01:28S 27°26' E 153°04'0 0.0
2017-Apr-25 00:58S 27°26' E 153°04'0 0.0
2017-Apr-25 00:25S 27°26' E 153°04'0 0.0
2017-Apr-24 23:58S 27°26' E 153°04'0 0.0
2017-Apr-24 23:25S 27°26' E 153°04'0 0.0
2017-Apr-24 22:58S 27°26' E 153°04'0 0.0
2017-Apr-24 22:28S 27°26' E 153°04'0 0.0
2017-Apr-24 21:58S 27°26' E 153°04'0 0.0
2017-Apr-24 21:25S 27°26' E 153°04'0 0.0
2017-Apr-24 20:58S 27°26' E 153°04'0 0.0
2017-Apr-24 20:28S 27°26' E 153°04'0 0.0
2017-Apr-24 19:58S 27°26' E 153°04'1 1.3
2017-Apr-24 19:30S 27°27' E 153°05'3 6.6
2017-Apr-24 19:00S 27°25' E 153°08'3 6.8
2017-Apr-24 18:30S 27°22' E 153°10'611.8
2017-Apr-24 18:00S 27°17' E 153°13'815.7
2017-Apr-24 17:30S 27°13' E 153°20'816.2
2017-Apr-24 17:00S 27°05' E 153°18'815.1
2017-Apr-24 16:30S 26°58' E 153°14'816.1
2017-Apr-24 16:00S 26°52' E 153°09'712.8
2017-Apr-24 15:30S 26°45' E 153°11'4 7.9
2017-Apr-24 15:00S 26°42' E 153°14'611.7
2017-Apr-24 14:30S 26°41' E 153°20'92 9.6
2017-Apr-24 05:00S 27°18' E 154°54'73 9.1 140 / 181018.010.8 26.016.327.2
2017-Apr-23 21:00S 28°30' E 154°42'56 6.3 150 / 131020.310.8 22.015.325.0
2017-Apr-23 12:00S 27°36' E 154°24'51 3.0 130 / 151021.510.8 23.019.922.5
2017-Apr-22 18:59S 26°53' E 153°54'1011.8
2017-Apr-22 18:08S 26°47' E 153°44'212.6
2017-Apr-22 17:59S 26°46' E 153°43'612.8
2017-Apr-22 17:29S 26°43' E 153°37'612.4
2017-Apr-22 17:00S 26°42' E 153°30'612.5
2017-Apr-22 16:30S 26°42' E 153°23'612.6
2017-Apr-22 16:00S 26°42' E 153°16'5 9.9
2017-Apr-22 15:30S 26°43' E 153°11'611.7
2017-Apr-22 15:00S 26°49' E 153°10'714.2
2017-Apr-22 14:31S 26°56' E 153°12'1717.0
2017-Apr-22 13:30S 27°11' E 153°21'816.0
2017-Apr-22 13:00S 27°17' E 153°15'612.9
2017-Apr-22 12:30S 27°22' E 153°10'4 7.4
2017-Apr-22 12:00S 27°25' E 153°08'3 6.4
2017-Apr-22 11:30S 27°27' E 153°05'1 1.8
2017-Apr-22 10:58S 27°26' E 153°04'0 0.0
2017-Apr-22 10:28S 27°26' E 153°04'0 0.0
2017-Apr-22 09:58S 27°26' E 153°04'0 0.0
2017-Apr-22 09:28S 27°26' E 153°04'0 0.0
2017-Apr-22 08:58S 27°26' E 153°04'0 0.0
2017-Apr-22 08:28S 27°26' E 153°04'0 0.0
2017-Apr-22 07:58S 27°26' E 153°04'0 0.0
2017-Apr-22 07:28S 27°26' E 153°04'0 0.0
2017-Apr-22 06:58S 27°26' E 153°04'0 0.0
2017-Apr-22 06:28S 27°26' E 153°04'0 0.0
2017-Apr-22 05:58S 27°26' E 153°04'0 0.0
2017-Apr-22 05:28S 27°26' E 153°04'0 0.0
2017-Apr-22 04:58S 27°26' E 153°04'0 0.0
2017-Apr-22 04:28S 27°26' E 153°04'0 0.0
2017-Apr-22 03:58S 27°26' E 153°04'0 0.0
2017-Apr-22 03:28S 27°26' E 153°04'0 0.0
2017-Apr-22 02:58S 27°26' E 153°04'0 0.0
2017-Apr-22 02:28S 27°26' E 153°04'0 0.0
2017-Apr-22 01:58S 27°26' E 153°04'0 0.0
2017-Apr-22 01:28S 27°26' E 153°04'0 0.0
2017-Apr-22 00:58S 27°26' E 153°04'0 0.0
2017-Apr-22 00:28S 27°26' E 153°04'0 0.0
2017-Apr-21 23:58S 27°26' E 153°04'0 0.0
2017-Apr-21 23:28S 27°26' E 153°04'0 0.0
2017-Apr-21 22:58S 27°26' E 153°04'0 0.0
2017-Apr-21 22:28S 27°26' E 153°04'0 0.0
2017-Apr-21 21:58S 27°26' E 153°04'0 0.0
2017-Apr-21 21:28S 27°26' E 153°04'0 0.0
2017-Apr-21 20:58S 27°26' E 153°04'0 0.0
2017-Apr-21 20:28S 27°26' E 153°04'0 0.0
2017-Apr-21 19:58S 27°26' E 153°04'2 3.9
2017-Apr-21 19:30S 27°27' E 153°06'3 6.6
2017-Apr-21 19:00S 27°25' E 153°09'4 8.2
2017-Apr-21 18:30S 27°21' E 153°11'713.2
2017-Apr-21 18:01S 27°16' E 153°16'816.3
2017-Apr-21 17:31S 27°09' E 153°21'816.5
2017-Apr-21 17:00S 27°02' E 153°16'917.7
2017-Apr-21 16:30S 26°55' E 153°11'611.8
2017-Apr-21 16:00S 26°49' E 153°10'6 8.8
2017-Apr-21 15:17S 26°42' E 153°11'2 8.8
2017-Apr-21 15:00S 26°41' E 153°14'4214.0
2017-Apr-21 12:00S 26°00' E 153°24'14436.1 100 / 201021.127.0 24.017.625.4
2017-Apr-21 08:00S 23°36' E 153°36'   120 / 261018.310.8 24.115.724.0
Track history (hours):
 
Tides and Currents Weather Stations Pressure Air Temp Water Temp Dewpoint Dewpoint Depression Visibility Wind Speed Wind Dir Waves Ship Positions

Pacific Dawn

Last reported at 2017-Apr-25 10:58 UTC. Time now 2017-Apr-25 12:33 UTC.
Position S 26°40' E 153°14'.

Length 245 m; draft 8.3 m.

Type: Passenger vessel. MMSI: 235059368.

Date/timePositionNaut miles runAvg speedWind from/ knotsBaromVisibWave heightAir tempDewpointWater temp
2017-Apr-25 10:58S 26°40' E 153°14'5 9.8
2017-Apr-25 10:27S 26°44' E 153°11'613.3
2017-Apr-25 10:00S 26°50' E 153°09'815.2
2017-Apr-25 09:30S 26°56' E 153°13'815.3
2017-Apr-25 09:01S 27°03' E 153°17'714.8
2017-Apr-25 08:30S 27°09' E 153°21'815.3
2017-Apr-25 08:01S 27°16' E 153°17'714.9
2017-Apr-25 07:30S 27°21' E 153°11'4 8.2
2017-Apr-25 07:00S 27°25' E 153°09'4 7.3
2017-Apr-25 06:30S 27°27' E 153°05'1 1.5
2017-Apr-25 05:58S 27°26' E 153°04'0 0.0
2017-Apr-25 05:28S 27°26' E 153°04'0 0.0
2017-Apr-25 04:58S 27°26' E 153°04'0 0.0
2017-Apr-25 04:28S 27°26' E 153°04'0 0.0
2017-Apr-25 03:58S 27°26' E 153°04'0 0.0
2017-Apr-25 03:28S 27°26' E 153°04'0 0.0
2017-Apr-25 02:58S 27°26' E 153°04'0 0.0
2017-Apr-25 02:28S 27°26' E 153°04'0 0.0
2017-Apr-25 01:58S 27°26' E 153°04'0 0.0
2017-Apr-25 01:28S 27°26' E 153°04'0 0.0
2017-Apr-25 00:58S 27°26' E 153°04'0 0.0
2017-Apr-25 00:25S 27°26' E 153°04'0 0.0
2017-Apr-24 23:58S 27°26' E 153°04'0 0.0
2017-Apr-24 23:25S 27°26' E 153°04'0 0.0
2017-Apr-24 22:58S 27°26' E 153°04'0 0.0
2017-Apr-24 22:28S 27°26' E 153°04'0 0.0
2017-Apr-24 21:58S 27°26' E 153°04'0 0.0
2017-Apr-24 21:25S 27°26' E 153°04'0 0.0
2017-Apr-24 20:58S 27°26' E 153°04'0 0.0
2017-Apr-24 20:28S 27°26' E 153°04'0 0.0
2017-Apr-24 19:58S 27°26' E 153°04'1 1.3
2017-Apr-24 19:30S 27°27' E 153°05'3 6.6
2017-Apr-24 19:00S 27°25' E 153°08'3 6.8
2017-Apr-24 18:30S 27°22' E 153°10'611.8
2017-Apr-24 18:00S 27°17' E 153°13'815.7
2017-Apr-24 17:30S 27°13' E 153°20'816.2
2017-Apr-24 17:00S 27°05' E 153°18'815.1
2017-Apr-24 16:30S 26°58' E 153°14'816.1
2017-Apr-24 16:00S 26°52' E 153°09'712.8
2017-Apr-24 15:30S 26°45' E 153°11'4 7.9
2017-Apr-24 15:00S 26°42' E 153°14'611.7
2017-Apr-24 14:30S 26°41' E 153°20'92 9.6
2017-Apr-24 05:00S 27°18' E 154°54'73 9.1 140 / 181018.010.8 26.016.327.2
2017-Apr-23 21:00S 28°30' E 154°42'56 6.3 150 / 131020.310.8 22.015.325.0
2017-Apr-23 12:00S 27°36' E 154°24'51 3.0 130 / 151021.510.8 23.019.922.5
2017-Apr-22 18:59S 26°53' E 153°54'1011.8
2017-Apr-22 18:08S 26°47' E 153°44'212.6
2017-Apr-22 17:59S 26°46' E 153°43'612.8
2017-Apr-22 17:29S 26°43' E 153°37'612.4
2017-Apr-22 17:00S 26°42' E 153°30'612.5
2017-Apr-22 16:30S 26°42' E 153°23'612.6
2017-Apr-22 16:00S 26°42' E 153°16'5 9.9
2017-Apr-22 15:30S 26°43' E 153°11'611.7
2017-Apr-22 15:00S 26°49' E 153°10'714.2
2017-Apr-22 14:31S 26°56' E 153°12'1717.0
2017-Apr-22 13:30S 27°11' E 153°21'816.0
2017-Apr-22 13:00S 27°17' E 153°15'612.9
2017-Apr-22 12:30S 27°22' E 153°10'4 7.4
2017-Apr-22 12:00S 27°25' E 153°08'3 6.4
2017-Apr-22 11:30S 27°27' E 153°05'1 1.8
2017-Apr-22 10:58S 27°26' E 153°04'0 0.0
2017-Apr-22 10:28S 27°26' E 153°04'0 0.0
2017-Apr-22 09:58S 27°26' E 153°04'0 0.0
2017-Apr-22 09:28S 27°26' E 153°04'0 0.0
2017-Apr-22 08:58S 27°26' E 153°04'0 0.0
2017-Apr-22 08:28S 27°26' E 153°04'0 0.0
2017-Apr-22 07:58S 27°26' E 153°04'0 0.0
2017-Apr-22 07:28S 27°26' E 153°04'0 0.0
2017-Apr-22 06:58S 27°26' E 153°04'0 0.0
2017-Apr-22 06:28S 27°26' E 153°04'0 0.0
2017-Apr-22 05:58S 27°26' E 153°04'0 0.0
2017-Apr-22 05:28S 27°26' E 153°04'0 0.0
2017-Apr-22 04:58S 27°26' E 153°04'0 0.0
2017-Apr-22 04:28S 27°26' E 153°04'0 0.0
2017-Apr-22 03:58S 27°26' E 153°04'0 0.0
2017-Apr-22 03:28S 27°26' E 153°04'0 0.0
2017-Apr-22 02:58S 27°26' E 153°04'0 0.0
2017-Apr-22 02:28S 27°26' E 153°04'0 0.0
2017-Apr-22 01:58S 27°26' E 153°04'0 0.0
2017-Apr-22 01:28S 27°26' E 153°04'0 0.0
2017-Apr-22 00:58S 27°26' E 153°04'0 0.0
2017-Apr-22 00:28S 27°26' E 153°04'0 0.0
2017-Apr-21 23:58S 27°26' E 153°04'0 0.0
2017-Apr-21 23:28S 27°26' E 153°04'0 0.0
2017-Apr-21 22:58S 27°26' E 153°04'0 0.0
2017-Apr-21 22:28S 27°26' E 153°04'0 0.0
2017-Apr-21 21:58S 27°26' E 153°04'0 0.0
2017-Apr-21 21:28S 27°26' E 153°04'0 0.0
2017-Apr-21 20:58S 27°26' E 153°04'0 0.0
2017-Apr-21 20:28S 27°26' E 153°04'0 0.0
2017-Apr-21 19:58S 27°26' E 153°04'2 3.9
2017-Apr-21 19:30S 27°27' E 153°06'3 6.6
2017-Apr-21 19:00S 27°25' E 153°09'4 8.2
2017-Apr-21 18:30S 27°21' E 153°11'713.2
2017-Apr-21 18:01S 27°16' E 153°16'816.3
2017-Apr-21 17:31S 27°09' E 153°21'816.5
2017-Apr-21 17:00S 27°02' E 153°16'917.7
2017-Apr-21 16:30S 26°55' E 153°11'611.8
2017-Apr-21 16:00S 26°49' E 153°10'6 8.8
2017-Apr-21 15:17S 26°42' E 153°11'2 8.8
2017-Apr-21 15:00S 26°41' E 153°14'4214.0
2017-Apr-21 12:00S 26°00' E 153°24'14436.1 100 / 201021.127.0 24.017.625.4
2017-Apr-21 08:00S 23°36' E 153°36'   120 / 261018.310.8 24.115.724.0

Dump ship's entire track history